Time;durP1;ratioP1;P1;durP2;ratioP2;P2;SDS_P1;SDS_P2;PMS_P1;PMS_P2;Temp;Humidity;BMP_temperature;BMP_pressure;BME280_temperature;BME280_humidity;BME280_pressure;Samples;Min_cycle;Max_cycle;Signal;HPM_P1;HPM_P2
2022/08/16 00:00:25;;;;;;;15.38;8.93;;;;;;;20.04;84.28;100478.44;5069948;28;20074;-65
2022/08/16 00:02:52;;;;;;;16.50;8.77;;;;;;;20.04;83.56;100481.13;5069866;28;20028;-65
2022/08/16 00:05:18;;;;;;;15.45;8.27;;;;;;;20.02;84.67;100478.72;5069894;28;20111;-65
2022/08/16 00:07:44;;;;;;;15.77;9.30;;;;;;;19.95;84.11;100483.56;5069634;28;20482;-65
2022/08/16 00:10:11;;;;;;;15.15;9.13;;;;;;;19.96;84.80;100485.19;5067792;28;20079;-65
2022/08/16 00:12:40;;;;;;;15.98;8.48;;;;;;;19.97;84.18;100486.81;5067910;28;20413;-65
2022/08/16 00:15:12;;;;;;;14.63;8.48;;;;;;;19.97;84.53;100483.31;5069656;28;20032;-65
2022/08/16 00:17:38;;;;;;;14.98;8.65;;;;;;;19.93;84.49;100489.22;5069441;28;20017;-65
2022/08/16 00:20:07;;;;;;;16.23;9.65;;;;;;;19.84;83.81;100487.34;5069664;28;20029;-65
2022/08/16 00:22:34;;;;;;;15.95;9.70;;;;;;;19.85;83.77;100487.06;5069451;28;20027;-65
2022/08/16 00:24:59;;;;;;;14.90;9.60;;;;;;;19.85;83.82;100505.19;5069197;28;20036;-65
2022/08/16 00:27:25;;;;;;;16.55;8.50;;;;;;;19.78;84.99;100499.22;5069527;28;20052;-64
2022/08/16 00:29:51;;;;;;;19.55;10.32;;;;;;;19.69;84.82;100510.56;5069207;28;20402;-65
2022/08/16 00:32:17;;;;;;;17.65;9.95;;;;;;;19.59;85.11;100502.38;5069395;28;20116;-65
2022/08/16 00:34:43;;;;;;;16.42;10.02;;;;;;;19.52;85.12;100507.25;5069490;28;20061;-65
2022/08/16 00:37:09;;;;;;;18.65;9.70;;;;;;;19.47;86.06;100505.31;5069264;28;20417;-64
2022/08/16 00:39:34;;;;;;;16.65;9.70;;;;;;;19.42;86.13;100508.00;5069536;28;20498;-65
2022/08/16 00:41:59;;;;;;;14.40;9.50;;;;;;;19.37;86.65;100499.88;5069163;28;20186;-65
2022/08/16 00:44:25;;;;;;;18.30;9.82;;;;;;;19.35;85.77;100507.41;5068829;28;20047;-64
2022/08/16 00:47:00;;;;;;;17.73;11.85;;;;;;;19.35;86.11;100506.63;5069214;28;20480;-65
2022/08/16 00:49:27;;;;;;;17.77;10.18;;;;;;;19.31;86.61;100509.03;5069116;28;20025;-64
2022/08/16 00:51:53;;;;;;;18.98;10.25;;;;;;;19.25;86.15;100504.66;5069308;28;20047;-65
2022/08/16 00:54:21;;;;;;;18.67;9.20;;;;;;;19.21;86.63;100506.28;5069213;28;20472;-64
2022/08/16 00:56:50;;;;;;;17.02;9.27;;;;;;;19.19;86.75;100513.84;5069138;28;20035;-65
2022/08/16 00:59:18;;;;;;;17.13;10.68;;;;;;;19.21;86.85;100511.69;5069139;28;20090;-65
2022/08/16 01:01:44;;;;;;;18.65;11.60;;;;;;;19.15;87.22;100502.75;5069224;28;20056;-64
2022/08/16 01:04:11;;;;;;;18.13;11.10;;;;;;;19.13;87.21;100506.78;5069199;28;20169;-65
2022/08/16 01:06:38;;;;;;;19.15;13.00;;;;;;;19.18;86.49;100512.22;5068961;28;20029;-64
2022/08/16 01:09:05;;;;;;;18.23;12.07;;;;;;;19.23;86.78;100509.50;5069198;28;20499;-64
2022/08/16 01:11:32;;;;;;;20.48;11.43;;;;;;;19.20;86.78;100508.19;5069203;28;20035;-64
2022/08/16 01:14:11;;;;;;;16.25;9.63;;;;;;;19.15;86.30;100502.75;5069093;28;20090;-65
2022/08/16 01:16:38;;;;;;;19.63;11.88;;;;;;;19.13;87.12;100510.28;5068859;28;20383;-65
2022/08/16 01:19:25;;;;;;;20.42;11.07;;;;;;;19.14;86.64;100506.50;5068478;28;20031;-65
2022/08/16 01:30:54;;;;;;;19.40;11.48;;;;;;;19.09;85.76;100502.97;5445399;22;20062;-68
2022/08/16 01:36:04;;;;;;;21.60;11.60;;;;;;;19.24;85.45;100506.56;5376936;22;20279;-68
2022/08/16 01:38:31;;;;;;;19.85;13.18;;;;;;;19.29;85.19;100496.84;4991577;28;20029;-68
2022/08/16 01:41:18;;;;;;;17.88;11.18;;;;;;;19.26;84.81;100488.19;5008992;28;20117;-68
2022/08/16 01:43:45;;;;;;;20.00;12.55;;;;;;;19.29;84.93;100488.75;5008324;28;20069;-68
2022/08/16 01:46:34;;;;;;;18.58;11.18;;;;;;;19.26;84.59;100498.19;5008719;28;20077;-68
2022/08/16 01:49:04;;;;;;;20.48;12.63;;;;;;;19.16;85.81;100493.53;5008899;28;20496;-68
2022/08/16 01:51:30;;;;;;;17.88;11.23;;;;;;;19.10;86.21;100493.75;5008868;28;20101;-68
2022/08/16 01:53:56;;;;;;;17.05;10.57;;;;;;;19.07;86.53;100503.22;5009137;28;20116;-65
2022/08/16 01:56:23;;;;;;;18.60;11.60;;;;;;;19.00;86.97;100498.06;5012446;28;20034;-65
2022/08/16 01:58:48;;;;;;;20.60;11.05;;;;;;;19.02;86.52;100505.88;5012470;28;20546;-65
2022/08/16 02:01:14;;;;;;;20.38;12.30;;;;;;;19.04;86.50;100503.75;5012207;28;20037;-65
2022/08/16 02:03:39;;;;;;;21.33;12.90;;;;;;;19.08;86.29;100504.06;5012324;28;20488;-65
2022/08/16 02:06:05;;;;;;;20.05;12.88;;;;;;;19.09;85.98;100498.38;5012543;28;20117;-65
2022/08/16 02:08:30;;;;;;;21.15;14.18;;;;;;;19.07;85.81;100495.09;5012253;28;20507;-65
2022/08/16 02:10:56;;;;;;;18.98;11.57;;;;;;;19.11;85.57;100512.44;5012202;28;20037;-65
2022/08/16 02:13:22;;;;;;;22.15;13.57;;;;;;;19.10;85.78;100509.97;5012143;28;20034;-65
2022/08/16 02:15:47;;;;;;;19.40;12.07;;;;;;;19.10;85.55;100500.00;5012065;28;20610;-65
2022/08/16 02:18:13;;;;;;;20.58;12.50;;;;;;;19.09;85.86;100500.25;5012010;28;20030;-65
2022/08/16 02:20:40;;;;;;;18.75;12.15;;;;;;;19.05;85.57;100498.09;5012368;28;20088;-65
2022/08/16 02:23:06;;;;;;;19.80;11.55;;;;;;;18.98;85.97;100489.38;5012307;28;20030;-65
2022/08/16 02:25:33;;;;;;;23.50;12.50;;;;;;;18.95;86.40;100498.03;5012228;28;20038;-65
2022/08/16 02:27:58;;;;;;;19.30;12.70;;;;;;;18.89;86.81;100503.63;5011949;28;20033;-65
2022/08/16 02:30:27;;;;;;;22.13;12.82;;;;;;;18.88;86.62;100502.03;5011953;28;20033;-65
2022/08/16 02:32:53;;;;;;;19.38;12.20;;;;;;;18.84;86.67;100496.34;5012067;28;20105;-65
2022/08/16 02:35:19;;;;;;;18.83;11.68;;;;;;;18.81;86.48;100503.06;5011874;28;20132;-67
2022/08/16 02:37:44;;;;;;;17.20;11.20;;;;;;;18.78;86.82;100506.28;5011981;28;20069;-67
2022/08/16 02:40:11;;;;;;;18.88;11.35;;;;;;;18.73;87.01;100506.22;5011920;28;20452;-67
2022/08/16 02:42:36;;;;;;;19.00;12.27;;;;;;;18.71;86.81;100502.97;5011914;28;20373;-67
2022/08/16 02:45:03;;;;;;;18.10;11.20;;;;;;;18.69;87.01;100501.59;5011828;28;20037;-67
2022/08/16 02:47:29;;;;;;;20.35;11.93;;;;;;;18.68;87.12;100499.94;5011682;28;20034;-67
2022/08/16 02:49:54;;;;;;;18.48;12.18;;;;;;;18.66;87.12;100491.31;5011733;28;20100;-67
2022/08/16 02:52:19;;;;;;;17.90;11.50;;;;;;;18.64;87.11;100490.75;5011555;28;20095;-68
2022/08/16 02:54:45;;;;;;;18.02;11.85;;;;;;;18.60;87.14;100499.38;5011606;28;20079;-69
2022/08/16 02:57:10;;;;;;;17.65;10.85;;;;;;;18.59;87.17;100502.31;5011537;28;20025;-69
2022/08/16 02:59:36;;;;;;;19.63;12.32;;;;;;;18.56;87.09;100497.44;5011519;28;20038;-69
2022/08/16 03:02:02;;;;;;;20.15;11.55;;;;;;;18.46;87.11;100483.88;5011547;28;20033;-69
2022/08/16 03:04:27;;;;;;;23.13;11.77;;;;;;;18.48;87.37;100490.63;5011681;28;20030;-69
2022/08/16 03:06:53;;;;;;;19.70;13.20;;;;;;;18.44;87.61;100494.09;5010577;28;20120;-69
2022/08/16 03:09:18;;;;;;;19.00;11.45;;;;;;;18.44;87.53;100492.22;5011350;28;20392;-69
2022/08/16 03:11:44;;;;;;;17.40;10.93;;;;;;;18.35;87.57;100477.56;5011374;28;20404;-69
2022/08/16 03:14:11;;;;;;;20.63;11.88;;;;;;;18.36;87.75;100479.19;5011264;28;20069;-69
2022/08/16 03:16:37;;;;;;;18.58;11.25;;;;;;;18.35;87.85;100481.06;4993595;28;20041;-69
2022/08/16 03:19:02;;;;;;;20.98;10.93;;;;;;;18.32;88.03;100480.78;5011257;28;20594;-69
2022/08/16 03:21:28;;;;;;;18.45;11.27;;;;;;;18.30;88.05;100481.03;5010670;28;20053;-69
2022/08/16 03:23:53;;;;;;;19.05;11.35;;;;;;;18.30;88.11;100485.63;5011159;28;20241;-69
2022/08/16 03:26:19;;;;;;;18.30;12.05;;;;;;;18.28;88.19;100488.56;5011074;28;20032;-69
2022/08/16 03:28:45;;;;;;;18.10;11.10;;;;;;;18.26;88.25;100484.50;5010757;28;20038;-69
2022/08/16 03:31:10;;;;;;;19.23;11.85;;;;;;;18.23;88.34;100483.13;5010709;28;20049;-69
2022/08/16 03:33:36;;;;;;;19.98;13.20;;;;;;;18.24;88.07;100490.16;5010975;28;20392;-69
2022/08/16 03:36:02;;;;;;;19.85;11.38;;;;;;;18.24;88.28;100489.34;5010759;28;20104;-67
2022/08/16 03:38:30;;;;;;;19.63;11.27;;;;;;;18.20;88.38;100488.22;5010868;28;20042;-67
2022/08/16 03:40:56;;;;;;;19.10;11.43;;;;;;;18.17;88.71;100484.16;4993028;28;20455;-67
2022/08/16 03:43:23;;;;;;;18.38;10.63;;;;;;;18.09;88.45;100488.13;5010595;28;20030;-67
2022/08/16 03:45:50;;;;;;;18.40;11.88;;;;;;;18.07;88.93;100501.06;5010745;28;20407;-69
2022/08/16 03:48:16;;;;;;;18.80;12.40;;;;;;;18.01;89.41;100501.28;5010596;28;20021;-67
2022/08/16 03:50:41;;;;;;;21.20;12.73;;;;;;;17.93;89.84;100505.25;5010690;28;20038;-67
2022/08/16 03:53:07;;;;;;;22.02;11.93;;;;;;;17.90;89.85;100509.28;5010343;28;20034;-67
2022/08/16 03:55:34;;;;;;;17.67;11.48;;;;;;;17.86;90.04;100510.81;5010561;28;20125;-67
2022/08/16 03:57:59;;;;;;;18.80;11.68;;;;;;;17.84;90.11;100513.00;5010401;28;20034;-68
2022/08/16 04:00:29;;;;;;;19.65;12.38;;;;;;;17.84;90.09;100517.53;5010449;28;20087;-68
2022/08/16 04:02:57;;;;;;;17.27;11.85;;;;;;;17.81;90.54;100518.06;5010300;28;20087;-68
2022/08/16 04:05:23;;;;;;;18.23;11.38;;;;;;;17.79;90.42;100525.56;5009741;28;20033;-69
2022/08/16 04:07:49;;;;;;;19.48;11.68;;;;;;;17.80;90.48;100525.34;5010239;28;20096;-68
2022/08/16 04:10:15;;;;;;;22.42;12.73;;;;;;;17.80;90.50;100529.94;5010255;28;20037;-68
2022/08/16 04:12:41;;;;;;;19.98;12.73;;;;;;;17.77;90.63;100528.53;5010153;28;20057;-68
2022/08/16 04:15:11;;;;;;;26.35;12.48;;;;;;;17.77;90.80;100525.81;5010014;28;20030;-65
2022/08/16 04:17:36;;;;;;;20.08;11.93;;;;;;;17.79;90.83;100529.13;5010115;28;20072;-65
2022/08/16 04:20:07;;;;;;;21.70;12.63;;;;;;;17.79;90.45;100531.81;5010211;28;20041;-65
2022/08/16 04:22:32;;;;;;;20.38;12.60;;;;;;;17.82;90.47;100538.59;5009709;28;20030;-65
2022/08/16 04:24:58;;;;;;;21.83;13.88;;;;;;;17.84;90.64;100528.34;5009573;28;20030;-65
2022/08/16 04:27:23;;;;;;;19.63;11.30;;;;;;;17.84;90.56;100534.56;5009949;28;20464;-65
2022/08/16 04:29:48;;;;;;;18.33;12.02;;;;;;;17.83;90.71;100541.00;4992416;28;20500;-65
2022/08/16 04:32:14;;;;;;;19.88;11.93;;;;;;;17.84;90.61;100539.13;5009838;28;20392;-66
2022/08/16 04:34:39;;;;;;;19.48;13.15;;;;;;;17.84;90.52;100544.53;5009560;28;20033;-66
2022/08/16 04:37:05;;;;;;;22.42;13.45;;;;;;;17.85;90.72;100538.09;5009874;28;20026;-65
2022/08/16 04:39:33;;;;;;;20.52;13.13;;;;;;;17.82;90.83;100527.81;5009680;28;20075;-66
2022/08/16 04:41:59;;;;;;;20.95;13.38;;;;;;;17.85;90.81;100532.69;5009649;28;20030;-65
2022/08/16 04:44:24;;;;;;;17.20;10.52;;;;;;;17.84;91.15;100537.28;5009623;28;20033;-65
2022/08/16 04:46:51;;;;;;;20.33;12.55;;;;;;;17.85;90.98;100540.78;5009659;28;20113;-66
2022/08/16 04:49:16;;;;;;;18.83;10.70;;;;;;;17.83;91.14;100538.31;5009537;28;20044;-65
2022/08/16 04:51:42;;;;;;;19.83;12.35;;;;;;;17.87;91.08;100538.66;5009548;28;20037;-65
2022/08/16 04:54:08;;;;;;;38.92;14.30;;;;;;;17.84;91.46;100533.72;5009586;28;20105;-65
2022/08/16 04:56:34;;;;;;;21.15;13.13;;;;;;;17.85;91.70;100530.00;5009579;28;20101;-65
2022/08/16 04:59:00;;;;;;;23.13;14.63;;;;;;;17.83;91.39;100537.50;5009464;28;20041;-65
2022/08/16 05:01:26;;;;;;;22.25;14.60;;;;;;;17.81;91.44;100543.16;5009529;28;20042;-65
2022/08/16 05:03:51;;;;;;;24.75;12.90;;;;;;;17.83;91.46;100537.50;4991803;28;20386;-65
2022/08/16 05:06:17;;;;;;;22.33;14.23;;;;;;;17.82;91.85;100539.41;5009492;28;20030;-65
2022/08/16 05:08:42;;;;;;;20.33;12.85;;;;;;;17.80;91.31;100548.81;5009332;28;20489;-65
2022/08/16 05:11:10;;;;;;;21.08;14.63;;;;;;;17.81;91.83;100547.72;5009382;28;20087;-65
2022/08/16 05:13:37;;;;;;;24.52;14.73;;;;;;;17.82;92.02;100557.47;5009568;28;20603;-65
2022/08/16 05:16:03;;;;;;;25.98;17.05;;;;;;;17.83;91.90;100556.41;5009440;28;20026;-65
2022/08/16 05:18:29;;;;;;;28.00;16.30;;;;;;;17.85;91.78;100548.88;5009340;28;20022;-66
2022/08/16 05:20:55;;;;;;;27.67;15.75;;;;;;;17.85;91.58;100559.66;5009499;28;20030;-65
2022/08/16 05:23:20;;;;;;;28.10;17.98;;;;;;;17.88;91.52;100554.56;5009369;28;20511;-65
2022/08/16 05:25:45;;;;;;;26.38;16.63;;;;;;;17.92;91.79;100560.25;5009434;28;20119;-66
2022/08/16 05:28:11;;;;;;;27.15;15.82;;;;;;;17.98;91.45;100553.88;5009233;28;20156;-65
2022/08/16 05:30:37;;;;;;;27.40;17.15;;;;;;;18.06;91.13;100568.81;5012414;28;20034;-65
2022/08/16 05:33:04;;;;;;;25.17;16.70;;;;;;;18.07;91.06;100565.84;5013214;28;20030;-65
2022/08/16 05:35:30;;;;;;;29.45;17.70;;;;;;;18.13;90.88;100561.31;4995279;28;20408;-65
2022/08/16 05:37:55;;;;;;;25.67;15.00;;;;;;;18.21;90.49;100562.72;4995414;28;20045;-65
2022/08/16 05:40:20;;;;;;;24.75;15.85;;;;;;;18.24;90.24;100563.06;5012980;28;20077;-65
2022/08/16 05:42:46;;;;;;;23.75;15.68;;;;;;;18.38;89.96;100577.75;5013018;28;20120;-65
2022/08/16 05:45:12;;;;;;;24.38;15.13;;;;;;;18.47;89.37;100578.13;5013125;28;20034;-65
2022/08/16 05:47:37;;;;;;;26.30;15.02;;;;;;;18.51;89.55;100579.25;5012685;28;20036;-65
2022/08/16 05:50:05;;;;;;;27.83;17.48;;;;;;;18.54;88.96;100584.13;5012673;28;20061;-66
2022/08/16 05:52:30;;;;;;;25.33;15.73;;;;;;;18.56;88.82;100581.19;5012153;28;20117;-67
2022/08/16 05:54:56;;;;;;;30.23;17.05;;;;;;;18.61;88.91;100586.63;5012270;28;20141;-67
2022/08/16 05:57:21;;;;;;;25.13;16.25;;;;;;;18.64;88.43;100590.72;5012435;28;20034;-67
2022/08/16 05:59:46;;;;;;;26.58;16.60;;;;;;;18.67;88.32;100599.09;5012379;28;20041;-67
2022/08/16 06:02:12;;;;;;;27.63;18.25;;;;;;;18.69;88.50;100594.25;5012441;28;20033;-66
2022/08/16 06:04:37;;;;;;;26.67;18.95;;;;;;;18.73;88.05;100598.09;5012522;28;20044;-67
2022/08/16 06:07:05;;;;;;;29.23;16.58;;;;;;;18.76;88.08;100602.19;5012349;28;20130;-67
2022/08/16 06:09:32;;;;;;;30.05;18.10;;;;;;;18.82;88.01;100593.06;5012589;28;20034;-67
2022/08/16 06:12:00;;;;;;;29.05;18.30;;;;;;;18.85;88.38;100605.22;5012414;28;20484;-67
2022/08/16 06:14:26;;;;;;;32.08;18.35;;;;;;;18.89;88.07;100599.06;5012304;28;20477;-67
2022/08/16 06:16:52;;;;;;;27.10;16.02;;;;;;;18.94;88.62;100599.09;5012278;28;20104;-66
2022/08/16 06:19:17;;;;;;;26.33;17.98;;;;;;;18.93;88.24;100593.94;5012094;28;20029;-67
2022/08/16 06:21:43;;;;;;;26.00;17.73;;;;;;;18.98;87.84;100594.00;5012262;28;20061;-66
2022/08/16 06:24:08;;;;;;;25.67;17.70;;;;;;;19.04;87.57;100598.34;5012153;28;20064;-66
2022/08/16 06:26:34;;;;;;;28.95;19.35;;;;;;;19.11;87.07;100608.94;5012175;28;20120;-66
2022/08/16 06:28:59;;;;;;;25.38;17.85;;;;;;;19.14;87.70;100603.03;5008703;28;20065;-64
2022/08/16 06:31:25;;;;;;;27.77;17.20;;;;;;;19.18;87.01;100604.94;5010174;28;20034;-66
2022/08/16 06:33:50;;;;;;;24.17;17.30;;;;;;;19.23;87.58;100606.84;5011919;28;20129;-66
2022/08/16 06:36:16;;;;;;;25.85;18.33;;;;;;;19.30;87.14;100609.34;5011697;28;20107;-66
2022/08/16 06:38:42;;;;;;;32.08;18.45;;;;;;;19.35;87.08;100614.78;5011956;28;20534;-66
2022/08/16 06:41:08;;;;;;;28.23;18.35;;;;;;;19.39;86.68;100611.31;5010734;28;20491;-67
2022/08/16 06:43:34;;;;;;;29.85;17.95;;;;;;;19.44;86.33;100607.78;5011878;28;20100;-66
2022/08/16 06:46:03;;;;;;;26.85;17.88;;;;;;;19.54;86.20;100602.44;5011789;28;20042;-66
2022/08/16 06:48:28;;;;;;;27.73;17.40;;;;;;;19.61;86.49;100605.75;5011351;28;20017;-66
2022/08/16 06:50:57;;;;;;;26.70;18.75;;;;;;;19.67;87.34;100607.41;5011476;28;20076;-65
2022/08/16 06:53:22;;;;;;;26.15;17.58;;;;;;;19.76;85.93;100613.16;4994028;28;20032;-67
2022/08/16 06:55:48;;;;;;;31.63;18.17;;;;;;;19.79;84.73;100601.81;5011311;28;20025;-66
2022/08/16 06:58:14;;;;;;;22.85;16.40;;;;;;;19.89;84.96;100615.38;5011423;28;20120;-66
2022/08/16 07:00:39;;;;;;;23.00;17.25;;;;;;;19.97;82.72;100615.94;5011528;28;20060;-66
2022/08/16 07:03:05;;;;;;;22.88;16.60;;;;;;;20.04;83.30;100611.91;5011158;28;20038;-66
2022/08/16 07:05:31;;;;;;;24.83;16.45;;;;;;;20.14;83.24;100620.06;5010826;28;20548;-66
2022/08/16 07:07:57;;;;;;;23.17;16.52;;;;;;;20.24;82.50;100623.88;5011289;28;20108;-66
2022/08/16 07:10:23;;;;;;;22.52;15.75;;;;;;;20.36;82.04;100621.75;5011287;28;20057;-66
2022/08/16 07:12:49;;;;;;;22.77;15.98;;;;;;;20.42;79.85;100617.97;5011334;28;20049;-65
2022/08/16 07:15:17;;;;;;;23.02;14.93;;;;;;;20.44;78.42;100623.94;5011293;28;20030;-66
2022/08/16 07:17:44;;;;;;;21.40;15.23;;;;;;;20.49;78.57;100629.38;5011155;28;20065;-66
2022/08/16 07:20:11;;;;;;;22.45;13.82;;;;;;;20.60;79.28;100640.25;5008427;28;20033;-67
2022/08/16 07:22:38;;;;;;;21.90;13.60;;;;;;;20.68;77.89;100635.13;5004454;28;20034;-67
2022/08/16 07:25:04;;;;;;;22.88;15.27;;;;;;;20.77;78.41;100629.97;5005213;28;20029;-66
2022/08/16 07:27:29;;;;;;;21.30;14.43;;;;;;;20.82;78.15;100629.16;5006523;28;20108;-65
2022/08/16 07:29:55;;;;;;;21.10;14.18;;;;;;;20.97;77.66;100640.00;5006842;28;20105;-67
2022/08/16 07:32:20;;;;;;;21.95;14.95;;;;;;;21.03;75.70;100641.63;5007082;28;20067;-65
2022/08/16 07:34:46;;;;;;;18.98;13.05;;;;;;;21.11;74.96;100640.28;5006401;28;20057;-66
2022/08/16 07:37:11;;;;;;;23.27;16.08;;;;;;;21.18;75.38;100641.63;5006968;28;20041;-66
2022/08/16 07:39:38;;;;;;;25.05;14.48;;;;;;;21.28;73.84;100643.53;5006889;28;20050;-66
2022/08/16 07:42:04;;;;;;;23.83;14.30;;;;;;;21.33;73.75;100646.22;5006806;28;20037;-66
2022/08/16 07:44:29;;;;;;;21.95;12.55;;;;;;;21.38;72.54;100648.97;5006895;28;20022;-66
2022/08/16 07:46:55;;;;;;;18.42;11.85;;;;;;;21.43;73.12;100654.38;5006461;28;20040;-66
2022/08/16 07:49:21;;;;;;;21.45;14.63;;;;;;;21.50;71.97;100654.09;5006702;28;21007;-66
2022/08/16 07:51:47;;;;;;;18.70;12.02;;;;;;;21.55;71.07;100650.56;5007028;28;20029;-66
2022/08/16 07:54:12;;;;;;;24.33;14.13;;;;;;;21.58;71.37;100653.53;5010492;28;20028;-66
2022/08/16 07:56:38;;;;;;;19.90;13.13;;;;;;;21.66;71.93;100646.72;5010512;28;20044;-67
2022/08/16 07:59:07;;;;;;;17.67;11.93;;;;;;;21.84;73.30;100654.25;5010631;28;20026;-66
2022/08/16 08:01:33;;;;;;;19.77;12.55;;;;;;;21.96;69.54;100653.16;5010305;28;20075;-66
2022/08/16 08:03:58;;;;;;;20.67;13.65;;;;;;;21.95;70.10;100637.94;5010333;28;20037;-66
2022/08/16 08:06:30;;;;;;;20.40;13.05;;;;;;;22.22;68.72;100667.47;5010273;28;20033;-66
2022/08/16 08:08:56;;;;;;;19.67;11.73;;;;;;;22.80;69.29;100658.72;5010101;28;20124;-66
2022/08/16 08:11:23;;;;;;;15.63;10.35;;;;;;;24.01;65.35;100661.38;5010270;28;20042;-66
2022/08/16 08:13:52;;;;;;;21.10;12.75;;;;;;;26.13;58.54;100658.47;5009927;28;20389;-66
2022/08/16 08:16:20;;;;;;;20.42;13.02;;;;;;;27.84;53.02;100651.31;5010209;28;20036;-66
2022/08/16 08:18:46;;;;;;;16.77;9.88;;;;;;;29.16;48.73;100649.16;5010162;28;20034;-66
2022/08/16 08:21:11;;;;;;;12.65;8.38;;;;;;;30.23;47.37;100658.22;5010171;28;20144;-65
2022/08/16 08:23:37;;;;;;;16.30;10.40;;;;;;;31.14;43.68;100655.69;4992372;28;20116;-66
2022/08/16 08:26:04;;;;;;;16.27;9.48;;;;;;;31.79;42.06;100660.63;5010024;28;20029;-66
2022/08/16 08:28:30;;;;;;;15.35;8.73;;;;;;;32.12;40.23;100660.47;5009786;28;20029;-66
2022/08/16 08:30:57;;;;;;;12.70;8.57;;;;;;;32.48;40.65;100664.34;5009781;28;20114;-66
2022/08/16 08:33:22;;;;;;;23.52;9.05;;;;;;;32.55;38.82;100663.75;5009931;28;20065;-67
2022/08/16 08:35:47;;;;;;;11.63;8.10;;;;;;;32.77;39.03;100662.41;5009675;28;20046;-67
2022/08/16 08:38:13;;;;;;;13.85;8.20;;;;;;;33.27;38.71;100655.47;5009796;28;20029;-66
2022/08/16 08:40:38;;;;;;;26.20;9.10;;;;;;;33.35;37.90;100668.31;5009787;28;20034;-66
2022/08/16 08:43:04;;;;;;;10.88;7.47;;;;;;;33.37;37.71;100666.78;5009776;28;20477;-66
2022/08/16 08:45:29;;;;;;;15.13;8.20;;;;;;;33.30;37.07;100665.81;5008645;28;20405;-67
2022/08/16 08:47:56;;;;;;;14.27;7.60;;;;;;;33.14;37.19;100661.09;5009426;28;20041;-66
2022/08/16 08:50:22;;;;;;;12.20;8.48;;;;;;;32.99;37.86;100661.00;5009690;28;20112;-68
2022/08/16 08:52:50;;;;;;;15.80;7.75;;;;;;;31.98;38.30;100665.56;5009580;28;20037;-66
2022/08/16 08:55:17;;;;;;;11.65;7.20;;;;;;;30.31;41.41;100673.06;5009430;28;20116;-67
2022/08/16 08:57:44;;;;;;;13.50;6.85;;;;;;;28.98;44.57;100664.84;5009483;28;20044;-66
2022/08/16 09:00:13;;;;;;;13.75;8.02;;;;;;;28.08;47.43;100675.56;4992027;28;20041;-67
2022/08/16 09:02:39;;;;;;;11.88;7.55;;;;;;;27.44;49.52;100670.47;5009437;28;20544;-67
2022/08/16 09:05:05;;;;;;;11.80;7.47;;;;;;;27.06;52.02;100681.81;5008690;28;20120;-66
2022/08/16 09:07:30;;;;;;;12.52;7.88;;;;;;;26.72;51.60;100679.63;5009254;28;20029;-67
2022/08/16 09:09:56;;;;;;;13.38;9.35;;;;;;;26.50;53.87;100681.19;5009430;28;20053;-67
2022/08/16 09:12:22;;;;;;;11.68;8.30;;;;;;;26.35;53.19;100681.53;5009385;28;20392;-67
2022/08/16 09:14:48;;;;;;;16.98;8.98;;;;;;;26.29;52.82;100686.28;5009255;28;20034;-67
2022/08/16 09:17:13;;;;;;;17.17;7.45;;;;;;;26.18;53.79;100674.75;5009402;28;20034;-66
2022/08/16 09:19:39;;;;;;;13.30;7.20;;;;;;;26.17;53.98;100675.91;4991626;28;20121;-67
2022/08/16 09:22:05;;;;;;;12.02;7.20;;;;;;;26.17;53.16;100684.09;5009379;28;20034;-67
2022/08/16 09:24:31;;;;;;;12.68;8.27;;;;;;;26.17;52.45;100686.81;5009350;28;20551;-67
2022/08/16 09:26:57;;;;;;;14.18;8.52;;;;;;;26.14;54.19;100690.16;5009236;28;20034;-67
2022/08/16 09:29:22;;;;;;;13.50;8.10;;;;;;;26.10;52.65;100688.34;5009176;28;20038;-67
2022/08/16 09:31:48;;;;;;;13.20;7.57;;;;;;;26.10;54.49;100694.63;5009232;28;20061;-67
2022/08/16 09:34:14;;;;;;;17.55;8.25;;;;;;;26.09;53.25;100692.19;5009107;28;20046;-67
2022/08/16 09:36:40;;;;;;;13.60;8.30;;;;;;;26.09;52.12;100686.72;5009166;28;20587;-67
2022/08/16 09:39:05;;;;;;;16.45;8.82;;;;;;;26.11;52.60;100687.22;4991622;28;20084;-67
2022/08/16 09:41:31;;;;;;;11.68;7.65;;;;;;;26.12;51.12;100689.66;5009003;28;20041;-66
2022/08/16 09:43:56;;;;;;;17.02;7.72;;;;;;;26.03;50.62;100688.75;5009296;28;20014;-67
2022/08/16 09:46:22;;;;;;;10.05;7.70;;;;;;;26.09;51.73;100695.72;5009145;28;20365;-67
2022/08/16 09:48:48;;;;;;;10.43;6.82;;;;;;;26.23;51.45;100699.25;5008091;28;20125;-66
2022/08/16 09:51:13;;;;;;;13.52;7.75;;;;;;;26.18;50.51;100701.31;5008827;28;20049;-66
2022/08/16 09:53:40;;;;;;;13.85;7.50;;;;;;;26.21;49.89;100693.28;5009212;28;20034;-67
2022/08/16 09:56:30;;;;;;;10.10;7.20;;;;;;;26.39;51.01;100698.94;5008812;28;20468;-66
2022/08/16 09:58:57;;;;;;;11.35;7.80;;;;;;;26.33;49.70;100691.94;4999376;28;20045;-67
2022/08/16 10:01:23;;;;;;;12.63;7.10;;;;;;;26.35;50.69;100695.19;5009052;28;20072;-67
2022/08/16 10:03:50;;;;;;;12.38;7.72;;;;;;;26.47;50.21;100694.69;4991093;28;20358;-66
2022/08/16 10:06:17;;;;;;;12.20;7.70;;;;;;;26.48;48.63;100686.16;5009010;28;20058;-66
2022/08/16 10:08:42;;;;;;;11.80;7.53;;;;;;;26.49;48.81;100690.53;5008797;28;20025;-66
2022/08/16 10:13:51;;;;;;;11.90;7.40;;;;;;;26.69;50.62;100682.97;5008989;28;20041;-66
2022/08/16 10:16:17;;;;;;;8.90;5.82;;;;;;;26.81;49.29;100688.72;5011206;28;20033;-66
2022/08/16 10:18:42;;;;;;;9.77;6.95;;;;;;;26.88;47.59;100689.91;5012345;28;20034;-66
2022/08/16 10:21:08;;;;;;;9.13;6.93;;;;;;;26.95;47.59;100691.41;5012140;28;20029;-66
2022/08/16 10:23:35;;;;;;;12.27;7.93;;;;;;;26.81;47.26;100686.78;5012308;28;20041;-66
2022/08/16 10:26:00;;;;;;;10.05;7.25;;;;;;;26.94;46.42;100693.34;5012262;28;20401;-66
2022/08/16 10:28:27;;;;;;;12.15;7.00;;;;;;;27.03;46.92;100688.72;5012028;28;20029;-66
2022/08/16 10:30:53;;;;;;;12.80;7.25;;;;;;;27.10;46.78;100685.56;5011945;28;20045;-66
2022/08/16 10:33:18;;;;;;;10.30;6.43;;;;;;;27.23;46.25;100692.91;5012002;28;20025;-66
2022/08/16 10:35:45;;;;;;;12.02;6.55;;;;;;;27.26;47.06;100692.28;5011650;28;20069;-66
2022/08/16 10:38:12;;;;;;;7.18;5.75;;;;;;;27.29;45.12;100694.38;5012010;28;20037;-66
2022/08/16 10:40:39;;;;;;;11.50;5.75;;;;;;;27.24;45.05;100702.72;5011442;28;20161;-66
2022/08/16 10:43:05;;;;;;;7.15;5.60;;;;;;;27.27;45.71;100704.03;5011900;28;20478;-66
2022/08/16 10:45:31;;;;;;;9.98;5.53;;;;;;;27.35;46.65;100703.28;5011878;28;20037;-66
2022/08/16 10:47:58;;;;;;;6.82;5.75;;;;;;;27.32;45.72;100701.16;5011632;28;20030;-66
2022/08/16 10:50:25;;;;;;;6.65;5.40;;;;;;;27.36;44.28;100704.91;5011746;28;20038;-69
2022/08/16 10:52:52;;;;;;;11.57;6.00;;;;;;;27.51;45.83;100707.25;5011684;28;20022;-70
2022/08/16 10:55:18;;;;;;;9.70;6.18;;;;;;;27.64;43.84;100702.81;5011730;28;20045;-71
2022/08/16 10:57:44;;;;;;;9.10;5.43;;;;;;;27.77;43.50;100698.31;5011616;28;20388;-71
2022/08/16 11:00:13;;;;;;;8.07;5.25;;;;;;;27.85;42.66;100700.34;5011639;28;20036;-69
2022/08/16 11:02:40;;;;;;;8.50;6.00;;;;;;;27.73;41.86;100695.44;5007353;28;20089;-68
2022/08/16 11:05:10;;;;;;;6.90;5.43;;;;;;;27.63;41.96;100700.38;5007167;28;20160;-69
2022/08/16 11:07:39;;;;;;;10.27;5.32;;;;;;;27.65;42.83;100709.91;5007521;28;20107;-68
2022/08/16 11:10:04;;;;;;;6.70;4.72;;;;;;;27.73;44.07;100711.88;5007550;28;20030;-69
2022/08/16 11:12:30;;;;;;;6.47;5.35;;;;;;;27.83;42.21;100708.06;5007259;28;20503;-68
2022/08/16 11:14:55;;;;;;;5.70;4.85;;;;;;;27.94;41.69;100709.41;5007387;28;20068;-70
2022/08/16 11:17:20;;;;;;;7.90;6.40;;;;;;;28.00;41.60;100709.25;5006766;28;20117;-68
2022/08/16 11:19:46;;;;;;;7.53;4.72;;;;;;;27.96;41.20;100706.34;5007399;28;20053;-68
2022/08/16 11:22:12;;;;;;;6.90;5.05;;;;;;;28.02;43.50;100715.25;5007083;28;20025;-67